createdAt,value
2023-02-06T00:01:51.642Z,32.37
2023-02-06T00:04:19.148Z,30.40
2023-02-06T00:06:46.753Z,30.30
2023-02-06T00:09:14.821Z,33.33
2023-02-06T00:11:42.334Z,31.23
2023-02-06T00:14:09.848Z,31.37
2023-02-06T00:16:37.537Z,36.33
2023-02-06T00:19:05.277Z,37.37
2023-02-06T00:21:33.027Z,38.13
2023-02-06T00:24:01.801Z,37.33
2023-02-06T00:26:31.383Z,37.60
2023-02-06T00:28:58.919Z,39.23
2023-02-06T00:31:26.621Z,43.30
2023-02-06T00:33:54.113Z,40.03
2023-02-06T00:36:21.614Z,36.53
2023-02-06T00:38:49.418Z,46.67
2023-02-06T00:41:16.880Z,35.70
2023-02-06T00:43:44.332Z,33.93
2023-02-06T00:46:12.111Z,30.10
2023-02-06T00:48:39.600Z,28.00
2023-02-06T00:51:07.106Z,27.30
2023-02-06T00:53:34.636Z,27.10
2023-02-06T00:56:02.254Z,26.07
2023-02-06T00:58:29.642Z,26.17
2023-02-06T01:00:57.173Z,27.63
2023-02-06T01:03:24.632Z,27.53
2023-02-06T01:05:52.410Z,31.10
2023-02-06T01:08:19.801Z,31.03
2023-02-06T01:10:47.203Z,31.93
2023-02-06T01:13:14.658Z,30.17
2023-02-06T01:15:42.240Z,30.87
2023-02-06T01:18:10.340Z,30.37
2023-02-06T01:20:40.194Z,31.47
2023-02-06T01:23:07.661Z,32.33
2023-02-06T01:25:35.250Z,33.03
2023-02-06T01:28:02.930Z,32.30
2023-02-06T01:30:30.421Z,29.40
2023-02-06T01:32:57.956Z,27.47
2023-02-06T01:35:25.519Z,25.60
2023-02-06T01:37:52.965Z,24.33
2023-02-06T01:40:20.441Z,24.20
2023-02-06T01:42:47.857Z,25.20
2023-02-06T01:45:27.140Z,25.17
2023-02-06T01:48:04.540Z,25.03
2023-02-06T01:50:34.739Z,25.63
2023-02-06T01:53:03.846Z,25.70
2023-02-06T01:55:31.429Z,25.03
2023-02-06T01:58:01.308Z,25.20
2023-02-06T02:00:28.855Z,23.97
2023-02-06T02:02:56.373Z,24.13
2023-02-06T02:05:23.962Z,24.03
2023-02-06T02:08:04.888Z,29.03
2023-02-06T02:10:32.590Z,26.93
2023-02-06T02:13:00.081Z,25.40
2023-02-06T02:15:39.668Z,25.00
2023-02-06T02:18:26.729Z,25.27
2023-02-06T02:21:38.900Z,25.37
2023-02-06T02:24:08.839Z,25.53
2023-02-06T02:26:56.911Z,25.57
2023-02-06T02:30:10.815Z,23.27
2023-02-06T02:32:49.460Z,24.07
2023-02-06T02:35:46.049Z,24.03
2023-02-06T02:39:02.453Z,22.93
2023-02-06T02:41:34.561Z,23.60
2023-02-06T02:44:28.083Z,23.73
2023-02-06T02:47:01.936Z,24.77
2023-02-06T02:49:33.467Z,25.07
2023-02-06T02:52:01.836Z,24.30
2023-02-06T02:54:29.284Z,24.27
2023-02-06T02:57:08.894Z,24.00
2023-02-06T02:59:45.174Z,23.10
2023-02-06T03:02:35.657Z,23.63
2023-02-06T03:05:08.637Z,25.60
2023-02-06T03:08:23.395Z,25.73
2023-02-06T03:11:04.700Z,24.73
2023-02-06T03:13:40.494Z,24.67
2023-02-06T03:16:33.793Z,27.23
2023-02-06T03:19:03.966Z,25.50
2023-02-06T03:21:32.730Z,25.93
2023-02-06T03:24:06.282Z,25.30
2023-02-06T03:26:37.405Z,24.53
2023-02-06T03:29:09.723Z,24.80
2023-02-06T03:31:47.840Z,27.53
2023-02-06T03:34:42.780Z,23.63
2023-02-06T03:37:11.945Z,25.60
2023-02-06T03:39:40.342Z,25.60
2023-02-06T03:42:11.073Z,26.70
2023-02-06T03:44:45.199Z,28.13
2023-02-06T03:47:14.009Z,28.17
2023-02-06T03:49:44.191Z,27.57
2023-02-06T03:52:17.154Z,33.47
2023-02-06T03:54:53.049Z,34.77
2023-02-06T03:57:23.591Z,33.53
2023-02-06T03:59:51.861Z,31.87
2023-02-06T04:02:21.384Z,36.20
2023-02-06T04:04:48.883Z,36.17
2023-02-06T04:07:26.164Z,35.87
2023-02-06T04:09:53.798Z,35.20
2023-02-06T04:12:23.564Z,35.00
2023-02-06T04:14:52.002Z,34.97
2023-02-06T04:17:38.471Z,38.30
2023-02-06T04:20:07.619Z,33.73
2023-02-06T04:22:35.394Z,35.13
2023-02-06T04:25:02.983Z,32.33
2023-02-06T04:27:30.525Z,34.03
2023-02-06T04:29:58.004Z,43.97
2023-02-06T04:32:25.757Z,36.80
2023-02-06T04:34:53.225Z,43.87
2023-02-06T04:37:20.603Z,38.20
2023-02-06T04:39:48.179Z,49.13
2023-02-06T04:42:15.702Z,45.33
2023-02-06T04:44:43.108Z,43.70
2023-02-06T04:47:10.526Z,42.70
2023-02-06T04:49:37.953Z,46.13
2023-02-06T04:52:05.464Z,53.00
2023-02-06T04:54:33.021Z,57.60
2023-02-06T04:57:00.867Z,63.13
2023-02-06T04:59:28.374Z,64.47
2023-02-06T05:01:55.758Z,57.80
2023-02-06T05:04:23.380Z,65.57
2023-02-06T05:06:50.816Z,55.73
2023-02-06T05:09:18.286Z,45.60
2023-02-06T05:11:45.695Z,45.30
2023-02-06T05:14:13.180Z,46.33
2023-02-06T05:16:40.652Z,43.53
2023-02-06T05:19:08.092Z,40.73
2023-02-06T05:21:35.603Z,40.90
2023-02-06T05:24:03.155Z,46.53
2023-02-06T05:26:30.567Z,49.27
2023-02-06T05:28:58.433Z,51.00
2023-02-06T05:31:26.010Z,51.43
2023-02-06T05:33:53.747Z,65.27
2023-02-06T05:36:22.769Z,66.77
2023-02-06T05:38:51.083Z,69.43
2023-02-06T05:41:19.050Z,63.23
2023-02-06T05:43:46.579Z,65.30
2023-02-06T05:46:14.501Z,110.03
2023-02-06T05:48:42.287Z,70.33
2023-02-06T05:51:09.738Z,62.27
2023-02-06T05:53:37.233Z,54.07
2023-02-06T05:56:05.535Z,51.57
2023-02-06T05:58:33.147Z,52.47
2023-02-06T06:01:00.647Z,42.20
2023-02-06T06:03:28.158Z,45.33
2023-02-06T06:05:55.708Z,46.07
2023-02-06T06:08:23.235Z,59.37
2023-02-06T06:10:52.741Z,47.50
2023-02-06T06:13:20.226Z,48.60
2023-02-06T06:15:52.633Z,40.63
2023-02-06T06:18:21.157Z,39.33
2023-02-06T06:20:49.614Z,37.63
2023-02-06T06:23:17.265Z,39.57
2023-02-06T06:25:47.341Z,44.23
2023-02-06T06:28:14.892Z,42.03
2023-02-06T06:30:42.889Z,41.70
2023-02-06T06:33:10.624Z,40.67
2023-02-06T06:35:38.490Z,41.20
2023-02-06T06:38:06.081Z,40.67
2023-02-06T06:40:33.499Z,41.00
2023-02-06T06:43:00.913Z,42.30
2023-02-06T06:45:28.437Z,42.10
2023-02-06T06:47:55.930Z,42.50
2023-02-06T06:50:23.405Z,42.67
2023-02-06T06:52:50.889Z,41.87
2023-02-06T06:55:19.720Z,41.93
2023-02-06T06:57:47.799Z,41.80
2023-02-06T07:00:16.877Z,44.10
2023-02-06T07:02:44.453Z,45.10
2023-02-06T07:05:12.160Z,44.23
2023-02-06T07:07:39.743Z,41.07
2023-02-06T07:10:09.161Z,42.73
2023-02-06T07:12:36.853Z,42.60
2023-02-06T07:15:05.831Z,38.77
2023-02-06T07:17:33.559Z,38.87
2023-02-06T07:20:01.002Z,36.87
2023-02-06T07:22:28.614Z,37.83
2023-02-06T07:24:56.106Z,37.60
2023-02-06T07:27:23.531Z,36.50
2023-02-06T07:29:50.921Z,36.90
2023-02-06T07:32:18.391Z,36.30
2023-02-06T07:34:45.839Z,35.63
2023-02-06T07:37:13.426Z,38.03
2023-02-06T07:39:40.846Z,39.73
2023-02-06T07:42:08.422Z,34.70
2023-02-06T07:44:35.784Z,35.10
2023-02-06T07:47:03.289Z,42.90
2023-02-06T07:49:30.760Z,36.77
2023-02-06T07:51:58.180Z,35.37
2023-02-06T07:54:25.612Z,31.70
2023-02-06T07:56:53.096Z,39.77
2023-02-06T07:59:20.939Z,30.43
2023-02-06T08:01:48.343Z,29.00
2023-02-06T08:04:15.815Z,28.60
2023-02-06T08:06:44.274Z,27.73
2023-02-06T08:09:18.897Z,28.33
2023-02-06T08:11:46.346Z,29.13
2023-02-06T08:14:13.788Z,31.10
2023-02-06T08:16:41.341Z,31.63
2023-02-06T08:19:11.081Z,26.57
2023-02-06T08:21:39.108Z,25.47
2023-02-06T08:24:06.888Z,26.13
2023-02-06T08:26:34.457Z,32.43
2023-02-06T08:29:05.599Z,36.87
2023-02-06T08:31:39.356Z,32.33
2023-02-06T08:34:08.826Z,26.07
2023-02-06T08:36:36.820Z,26.07
2023-02-06T08:39:05.861Z,23.27
2023-02-06T08:41:37.459Z,23.83
2023-02-06T08:44:11.991Z,22.47
2023-02-06T08:46:40.327Z,23.40
2023-02-06T08:49:15.378Z,23.00
2023-02-06T08:51:43.204Z,22.03
2023-02-06T08:54:16.105Z,23.17
2023-02-06T08:56:43.607Z,24.30
2023-02-06T08:59:13.626Z,24.60
2023-02-06T09:01:42.209Z,24.60
2023-02-06T09:04:11.998Z,23.93
2023-02-06T09:06:43.574Z,23.57
2023-02-06T09:09:12.950Z,25.47
2023-02-06T09:11:40.651Z,25.63
2023-02-06T09:14:11.342Z,25.60
2023-02-06T09:16:38.969Z,25.23
2023-02-06T09:19:07.181Z,24.20
2023-02-06T09:21:36.554Z,23.00
2023-02-06T09:24:08.273Z,24.17
2023-02-06T09:26:58.033Z,22.37
2023-02-06T09:29:29.081Z,22.27
2023-02-06T09:31:57.666Z,22.57
2023-02-06T09:34:28.147Z,22.97
2023-02-06T09:36:57.037Z,23.17
2023-02-06T09:39:25.163Z,21.87
2023-02-06T09:41:57.123Z,22.47
2023-02-06T09:44:42.485Z,22.53
2023-02-06T09:47:48.647Z,23.10
2023-02-06T09:50:35.840Z,23.33
2023-02-06T09:53:30.531Z,24.10
2023-02-06T09:56:21.472Z,24.47
2023-02-06T09:59:05.986Z,24.63
2023-02-06T10:02:19.762Z,23.70
2023-02-06T10:05:22.368Z,22.60
2023-02-06T10:08:10.734Z,23.43
2023-02-06T10:10:41.264Z,20.87
2023-02-06T10:13:26.320Z,16.13
2023-02-06T10:16:01.049Z,14.00
2023-02-06T10:18:44.848Z,14.43
2023-02-06T10:21:38.309Z,17.50
2023-02-06T10:24:05.776Z,17.70
2023-02-06T10:26:39.132Z,17.33
2023-02-06T10:29:16.870Z,16.77
2023-02-06T10:32:28.819Z,18.50
2023-02-06T10:35:53.416Z,19.07
2023-02-06T10:38:51.827Z,10.70
2023-02-06T10:41:30.764Z,8.00
2023-02-06T10:44:36.758Z,5.63
2023-02-06T10:47:35.750Z,3.53
2023-02-06T10:50:29.620Z,9.00
2023-02-06T10:53:02.965Z,10.93
2023-02-06T10:56:18.103Z,7.90
2023-02-06T10:59:20.516Z,3.70
2023-02-06T11:01:50.560Z,6.60
2023-02-06T11:04:42.386Z,9.70
2023-02-06T11:07:25.206Z,11.67
2023-02-06T11:09:53.511Z,9.87
2023-02-06T11:12:52.656Z,10.20
2023-02-06T11:15:43.560Z,8.93
2023-02-06T11:18:16.436Z,8.37
2023-02-06T11:20:46.923Z,8.43
2023-02-06T11:23:37.474Z,9.73
2023-02-06T11:26:20.254Z,14.20
2023-02-06T11:28:55.329Z,10.73
2023-02-06T11:31:44.547Z,8.67
2023-02-06T11:34:34.190Z,9.67
2023-02-06T11:37:06.415Z,9.87
2023-02-06T11:39:38.982Z,9.73
2023-02-06T11:42:23.494Z,8.63
2023-02-06T11:44:53.194Z,9.17
2023-02-06T11:47:33.481Z,8.10
2023-02-06T11:50:13.583Z,9.07
2023-02-06T11:52:47.106Z,11.53
2023-02-06T11:55:27.496Z,8.27
2023-02-06T11:58:05.294Z,11.23
2023-02-06T12:00:33.754Z,10.27
2023-02-06T12:03:01.939Z,8.57
2023-02-06T12:05:37.643Z,7.97
2023-02-06T12:08:18.717Z,8.40
2023-02-06T12:11:03.577Z,8.20
2023-02-06T12:13:39.424Z,11.10
2023-02-06T12:16:08.947Z,10.60
2023-02-06T12:18:40.418Z,9.03
2023-02-06T12:21:43.033Z,12.53
2023-02-06T12:24:30.543Z,10.83
2023-02-06T12:27:03.160Z,10.00
2023-02-06T12:29:42.104Z,9.43
2023-02-06T12:32:25.178Z,8.90
2023-02-06T12:35:02.602Z,10.47
2023-02-06T12:37:54.084Z,8.27
2023-02-06T12:40:39.237Z,12.23
2023-02-06T12:43:16.487Z,11.13
2023-02-06T12:45:45.964Z,11.03
2023-02-06T12:48:28.892Z,14.83
2023-02-06T12:51:19.140Z,7.97
2023-02-06T12:53:54.558Z,11.23
2023-02-06T12:56:45.928Z,8.97
2023-02-06T12:59:31.212Z,7.43
2023-02-06T13:02:32.450Z,8.10
2023-02-06T13:05:05.891Z,8.60
2023-02-06T13:07:49.056Z,10.50
2023-02-06T13:10:24.775Z,13.53
2023-02-06T13:13:01.518Z,12.70
2023-02-06T13:15:37.916Z,12.03
2023-02-06T13:18:37.269Z,9.33
2023-02-06T13:21:30.212Z,9.77
2023-02-06T13:24:03.792Z,8.30
2023-02-06T13:26:46.506Z,8.53
2023-02-06T13:29:37.647Z,7.87
2023-02-06T13:32:29.674Z,8.90
2023-02-06T13:35:06.737Z,14.57
2023-02-06T13:37:40.321Z,27.87
2023-02-06T13:40:26.850Z,19.10
2023-02-06T13:43:14.018Z,16.20
2023-02-06T13:45:58.841Z,18.63
2023-02-06T13:49:03.636Z,13.53
2023-02-06T13:51:51.086Z,11.10
2023-02-06T13:54:38.111Z,10.33
2023-02-06T13:58:01.867Z,8.67
2023-02-06T14:00:33.401Z,8.87
2023-02-06T14:03:21.100Z,9.73
2023-02-06T14:06:07.340Z,8.57
2023-02-06T14:08:45.083Z,13.93
2023-02-06T14:11:29.000Z,11.47
2023-02-06T14:14:36.219Z,10.30
2023-02-06T14:17:37.315Z,15.77
2023-02-06T14:20:23.479Z,13.80
2023-02-06T14:23:19.388Z,17.83
2023-02-06T14:26:12.040Z,13.27
2023-02-06T14:29:03.798Z,16.40
2023-02-06T14:32:10.705Z,13.13
2023-02-06T14:35:22.087Z,13.63
2023-02-06T14:38:23.463Z,12.30
2023-02-06T14:40:55.104Z,15.13
2023-02-06T14:43:31.259Z,16.83
2023-02-06T14:46:07.954Z,12.10
2023-02-06T14:48:57.807Z,16.03
2023-02-06T14:51:34.236Z,22.60
2023-02-06T14:54:05.887Z,21.83
2023-02-06T14:56:38.045Z,17.07
2023-02-06T14:59:15.608Z,20.50
2023-02-06T15:01:47.197Z,12.13
2023-02-06T15:04:22.154Z,14.73
2023-02-06T15:06:59.566Z,24.57
2023-02-06T15:09:35.877Z,15.00
2023-02-06T15:12:21.447Z,17.37
2023-02-06T15:15:20.651Z,15.53
2023-02-06T15:18:07.002Z,21.13
2023-02-06T15:20:42.228Z,18.50
2023-02-06T15:23:40.596Z,18.33
2023-02-06T15:26:29.668Z,19.07
2023-02-06T15:29:00.658Z,23.23
2023-02-06T15:31:29.201Z,24.60
2023-02-06T15:34:00.869Z,25.87
2023-02-06T15:36:38.499Z,25.43
2023-02-06T15:39:12.554Z,21.07
2023-02-06T15:41:46.688Z,16.60
2023-02-06T15:44:26.019Z,14.33
2023-02-06T15:46:55.353Z,13.60
2023-02-06T15:49:43.444Z,14.53
2023-02-06T15:52:14.042Z,23.43
2023-02-06T15:54:45.134Z,27.93
2023-02-06T15:57:39.146Z,33.90
2023-02-06T16:00:23.591Z,33.73
2023-02-06T16:02:54.042Z,38.37
2023-02-06T16:05:31.652Z,16.17
2023-02-06T16:08:00.544Z,24.27
2023-02-06T16:10:37.235Z,20.87
2023-02-06T16:13:12.591Z,21.87
2023-02-06T16:15:41.244Z,21.20
2023-02-06T16:18:31.218Z,19.47
2023-02-06T16:21:16.916Z,32.40
2023-02-06T16:24:00.297Z,45.27
2023-02-06T16:26:47.276Z,47.57
2023-02-06T16:29:30.508Z,48.10
2023-02-06T16:32:03.194Z,62.53
2023-02-06T16:34:41.624Z,73.70
2023-02-06T16:37:22.548Z,151.37
2023-02-06T16:39:50.446Z,229.67
2023-02-06T16:42:38.299Z,223.60
2023-02-06T16:45:27.012Z,234.97
2023-02-06T16:47:55.223Z,128.03
2023-02-06T16:50:23.034Z,72.23
2023-02-06T16:52:54.815Z,66.30
2023-02-06T16:55:25.872Z,70.47
2023-02-06T16:57:58.989Z,102.40
2023-02-06T17:00:31.358Z,61.90
2023-02-06T17:02:59.809Z,51.77
2023-02-06T17:05:29.507Z,54.87
2023-02-06T17:07:57.100Z,34.90
2023-02-06T17:10:27.149Z,32.40
2023-02-06T17:12:54.546Z,73.40
2023-02-06T17:15:22.053Z,59.67
2023-02-06T17:17:49.466Z,52.83
2023-02-06T17:20:38.983Z,50.07
2023-02-06T17:23:07.301Z,117.00
2023-02-06T17:25:35.186Z,112.93
2023-02-06T17:28:03.642Z,98.33
2023-02-06T17:30:31.196Z,77.93
2023-02-06T17:32:58.648Z,79.70
2023-02-06T17:35:26.360Z,76.00
2023-02-06T17:37:54.279Z,56.37
2023-02-06T17:40:30.260Z,54.63
2023-02-06T17:42:59.359Z,45.27
2023-02-06T17:45:27.200Z,46.40
2023-02-06T17:47:54.858Z,56.57
2023-02-06T17:50:24.994Z,51.60
2023-02-06T17:52:56.343Z,64.27
2023-02-06T17:55:24.856Z,61.43
2023-02-06T17:57:53.091Z,57.23
2023-02-06T18:00:26.023Z,56.33
2023-02-06T18:02:55.639Z,54.70
2023-02-06T18:05:24.246Z,48.93
2023-02-06T18:07:52.328Z,45.53
2023-02-06T18:10:22.328Z,48.90
2023-02-06T18:12:50.106Z,59.87
2023-02-06T18:15:18.088Z,53.73
2023-02-06T18:17:45.682Z,37.87
2023-02-06T18:20:13.981Z,33.77
2023-02-06T18:22:41.714Z,32.57
2023-02-06T18:25:13.805Z,32.33
2023-02-06T18:27:42.947Z,33.50
2023-02-06T18:30:12.008Z,32.00
2023-02-06T18:32:39.952Z,29.77
2023-02-06T18:35:09.362Z,32.43
2023-02-06T18:37:37.152Z,28.13
2023-02-06T18:40:05.489Z,31.40
2023-02-06T18:42:51.412Z,30.50
2023-02-06T18:45:24.119Z,31.10
2023-02-06T18:47:52.721Z,23.53
2023-02-06T18:50:22.096Z,26.80
2023-02-06T18:52:50.565Z,37.70
2023-02-06T18:55:18.228Z,26.93
2023-02-06T18:57:46.596Z,20.50
2023-02-06T19:00:17.008Z,25.00
2023-02-06T19:02:44.549Z,39.30
2023-02-06T19:05:12.028Z,44.00
2023-02-06T19:07:39.475Z,45.33
2023-02-06T19:10:10.633Z,45.80
2023-02-06T19:12:39.446Z,45.80
2023-02-06T19:15:07.553Z,43.33
2023-02-06T19:17:35.575Z,63.73
2023-02-06T19:20:04.636Z,106.23
2023-02-06T19:22:37.671Z,111.00
2023-02-06T19:25:10.302Z,74.27
2023-02-06T19:27:38.792Z,38.13
2023-02-06T19:30:08.185Z,38.10
2023-02-06T19:32:36.396Z,40.43
2023-02-06T19:35:05.388Z,42.77
2023-02-06T19:37:32.880Z,62.37
2023-02-06T19:40:00.330Z,33.27
2023-02-06T19:42:27.778Z,23.63
2023-02-06T19:44:55.485Z,21.80
2023-02-06T19:47:23.380Z,22.00
2023-02-06T19:49:56.167Z,21.23
2023-02-06T19:52:23.589Z,20.27
2023-02-06T19:54:51.019Z,20.60
2023-02-06T19:57:19.551Z,20.10
2023-02-06T19:59:46.979Z,18.80
2023-02-06T20:02:17.197Z,19.87
2023-02-06T20:04:46.314Z,20.40
2023-02-06T20:07:13.797Z,21.03
2023-02-06T20:09:42.879Z,21.57
2023-02-06T20:12:12.603Z,22.47
2023-02-06T20:14:40.155Z,22.97
2023-02-06T20:17:08.521Z,26.60
2023-02-06T20:19:36.055Z,26.13
2023-02-06T20:22:04.548Z,24.43
2023-02-06T20:24:33.133Z,24.60
2023-02-06T20:27:04.478Z,24.30
2023-02-06T20:29:38.794Z,22.67
2023-02-06T20:32:07.490Z,26.00
2023-02-06T20:34:35.944Z,30.20
2023-02-06T20:37:04.410Z,32.00
2023-02-06T20:39:32.213Z,37.83
2023-02-06T20:42:00.418Z,33.07
2023-02-06T20:44:28.712Z,33.77
2023-02-06T20:46:56.162Z,24.97
2023-02-06T20:49:27.413Z,28.63
2023-02-06T20:51:55.308Z,31.40
2023-02-06T20:54:23.436Z,33.93
2023-02-06T20:56:51.370Z,30.73
2023-02-06T20:59:20.662Z,27.00
2023-02-06T21:01:48.700Z,25.67
2023-02-06T21:04:18.461Z,26.00
2023-02-06T21:06:48.717Z,27.07
2023-02-06T21:09:18.096Z,29.60
2023-02-06T21:11:50.330Z,28.37
2023-02-06T21:14:20.125Z,28.50
2023-02-06T21:16:47.977Z,29.10
2023-02-06T21:19:18.333Z,27.13
2023-02-06T21:21:46.420Z,27.43
2023-02-06T21:24:15.008Z,27.43
2023-02-06T21:26:42.786Z,26.90
2023-02-06T21:29:12.077Z,25.33
2023-02-06T21:31:39.686Z,25.70
2023-02-06T21:34:19.218Z,28.27
2023-02-06T21:36:47.127Z,27.40
2023-02-06T21:39:23.461Z,31.33
2023-02-06T21:41:56.901Z,36.63
2023-02-06T21:44:26.558Z,35.73
2023-02-06T21:46:56.045Z,37.43
2023-02-06T21:49:24.091Z,40.07
2023-02-06T21:51:52.086Z,45.90
2023-02-06T21:54:20.094Z,37.63
2023-02-06T21:56:47.767Z,33.30
2023-02-06T21:59:15.142Z,30.70
2023-02-06T22:01:42.932Z,27.80
2023-02-06T22:04:11.847Z,31.27
2023-02-06T22:06:39.965Z,29.10
2023-02-06T22:09:09.948Z,29.10
2023-02-06T22:11:41.569Z,27.37
2023-02-06T22:14:15.772Z,26.87
2023-02-06T22:16:46.666Z,27.40
2023-02-06T22:19:16.263Z,26.97
2023-02-06T22:21:43.981Z,28.33
2023-02-06T22:24:12.407Z,31.13
2023-02-06T22:26:41.673Z,29.30
2023-02-06T22:29:14.792Z,26.90
2023-02-06T22:31:43.451Z,28.40
2023-02-06T22:34:17.443Z,31.80
2023-02-06T22:36:44.920Z,37.93
2023-02-06T22:39:14.458Z,30.23
2023-02-06T22:41:44.672Z,28.33
2023-02-06T22:44:16.740Z,24.23
2023-02-06T22:46:47.939Z,22.87
2023-02-06T22:49:15.991Z,28.13
2023-02-06T22:51:43.810Z,23.77
2023-02-06T22:54:12.004Z,26.90
2023-02-06T22:56:42.451Z,24.97
2023-02-06T22:59:18.259Z,26.97
2023-02-06T23:01:52.708Z,30.20
2023-02-06T23:04:40.839Z,26.67
2023-02-06T23:07:08.347Z,25.03
2023-02-06T23:09:39.101Z,37.17
2023-02-06T23:12:06.941Z,40.80
2023-02-06T23:14:34.437Z,39.40
2023-02-06T23:17:03.432Z,27.53
2023-02-06T23:19:31.090Z,27.27
2023-02-06T23:21:58.871Z,22.60
2023-02-06T23:24:26.757Z,24.47
2023-02-06T23:26:54.602Z,24.33
2023-02-06T23:29:24.048Z,22.93
2023-02-06T23:31:52.486Z,23.73
2023-02-06T23:34:20.676Z,22.20
2023-02-06T23:36:48.083Z,23.30
2023-02-06T23:39:15.882Z,30.53
2023-02-06T23:41:43.358Z,32.43
2023-02-06T23:44:11.635Z,32.30
2023-02-06T23:46:40.305Z,29.40
2023-02-06T23:49:08.449Z,26.70
2023-02-06T23:51:38.136Z,27.07
2023-02-06T23:54:08.183Z,27.93
2023-02-06T23:56:36.700Z,29.03
2023-02-06T23:59:05.938Z,28.13
